Time;durP1;ratioP1;P1;durP2;ratioP2;P2;SDS_P1;SDS_P2;PMS_P1;PMS_P2;Temp;Humidity;BMP_temperature;BMP_pressure;BME280_temperature;BME280_humidity;BME280_pressure;Samples;Min_cycle;Max_cycle;Signal;HPM_P1;HPM_P2
2021/09/02 00:02:18;;;;;;;16.63;11.70;;;;;;;;;;740992;190;625179;-83
2021/09/02 00:04:44;;;;;;;20.83;11.93;;;;;;;;;;739480;187;619363;-82
2021/09/02 00:07:10;;;;;;;18.63;11.67;;;;;;;;;;736555;191;628190;-83
2021/09/02 00:09:36;;;;;;;17.47;12.40;;;;;;;;;;734998;189;619245;-83
2021/09/02 00:12:02;;;;;;;21.10;13.00;;;;;;;;;;732038;189;630570;-82
2021/09/02 00:14:28;;;;;;;18.17;12.07;;;;;;;;;;736927;190;630473;-82
2021/09/02 00:16:53;;;;;;;18.87;12.60;;;;;;;;;;732717;190;652974;-82
2021/09/02 00:19:19;;;;;;;19.53;12.53;;;;;;;;;;730024;190;624441;-83
2021/09/02 00:21:45;;;;;;;19.73;12.50;;;;;;;;;;730417;190;622651;-82
2021/09/02 00:24:11;;;;;;;21.90;11.73;;;;;;;;;;740065;189;641319;-83
2021/09/02 00:26:37;;;;;;;17.03;10.87;;;;;;;;;;739816;189;624971;-82
2021/09/02 00:29:03;;;;;;;15.50;10.93;;;;;;;;;;737383;190;640454;-82
2021/09/02 00:31:28;;;;;;;18.17;11.17;;;;;;;;;;740966;190;658443;-83
2021/09/02 00:33:54;;;;;;;11.10;8.40;;;;;;;;;;735262;189;633700;-82
2021/09/02 00:36:20;;;;;;;14.47;9.67;;;;;;;;;;735079;190;683984;-81
2021/09/02 00:38:46;;;;;;;16.00;9.73;;;;;;;;;;737341;189;654631;-81
2021/09/02 00:41:12;;;;;;;16.10;10.07;;;;;;;;;;732015;191;644190;-82
2021/09/02 00:43:38;;;;;;;11.63;9.27;;;;;;;;;;732763;191;619732;-81
2021/09/02 00:46:04;;;;;;;15.67;9.53;;;;;;;;;;728026;191;637144;-82
2021/09/02 00:48:30;;;;;;;12.00;8.50;;;;;;;;;;731569;190;654802;-83
2021/09/02 00:50:56;;;;;;;12.13;8.97;;;;;;;;;;731494;190;622136;-83
2021/09/02 00:53:22;;;;;;;20.10;9.30;;;;;;;;;;737138;189;614497;-82
2021/09/02 00:55:48;;;;;;;11.70;8.80;;;;;;;;;;734689;187;642494;-83
2021/09/02 00:58:13;;;;;;;12.10;8.87;;;;;;;;;;740110;190;634245;-83
2021/09/02 01:00:39;;;;;;;12.00;7.73;;;;;;;;;;735209;188;634096;-83
2021/09/02 01:03:05;;;;;;;14.70;8.30;;;;;;;;;;739102;190;635038;-83
2021/09/02 01:05:31;;;;;;;8.87;7.07;;;;;;;;;;739999;190;690998;-82
2021/09/02 01:07:57;;;;;;;9.43;7.37;;;;;;;;;;730733;191;657760;-82
2021/09/02 01:10:23;;;;;;;7.00;5.93;;;;;;;;;;739188;190;628774;-83
2021/09/02 01:12:49;;;;;;;11.50;7.77;;;;;;;;;;734851;190;637549;-84
2021/09/02 01:15:16;;;;;;;9.57;6.60;;;;;;;;;;734802;188;629240;-83
2021/09/02 01:17:43;;;;;;;13.77;7.53;;;;;;;;;;731446;189;632964;-83
2021/09/02 01:20:10;;;;;;;8.20;5.77;;;;;;;;;;737954;190;664668;-84
2021/09/02 01:22:36;;;;;;;10.53;6.07;;;;;;;;;;743486;190;647221;-83
2021/09/02 01:25:02;;;;;;;10.40;6.07;;;;;;;;;;737649;190;652070;-83
2021/09/02 01:27:28;;;;;;;9.37;6.27;;;;;;;;;;739329;189;670000;-83
2021/09/02 01:29:54;;;;;;;9.13;6.50;;;;;;;;;;742996;190;640719;-83
2021/09/02 01:32:20;;;;;;;11.57;6.53;;;;;;;;;;737372;189;626749;-83
2021/09/02 01:34:46;;;;;;;11.37;5.80;;;;;;;;;;733964;189;627054;-83
2021/09/02 01:37:12;;;;;;;10.50;6.50;;;;;;;;;;738609;190;672977;-84
2021/09/02 01:39:38;;;;;;;9.33;5.97;;;;;;;;;;738956;189;647552;-83
2021/09/02 01:42:04;;;;;;;8.07;6.00;;;;;;;;;;738607;190;664940;-82
2021/09/02 01:44:29;;;;;;;8.80;6.53;;;;;;;;;;736889;190;638630;-83
2021/09/02 01:46:56;;;;;;;8.40;6.00;;;;;;;;;;739718;189;644202;-83
2021/09/02 01:49:22;;;;;;;8.63;5.63;;;;;;;;;;729777;190;692167;-81
2021/09/02 01:51:47;;;;;;;8.63;6.60;;;;;;;;;;738052;190;663748;-82
2021/09/02 01:54:13;;;;;;;9.90;5.30;;;;;;;;;;733777;191;711757;-83
2021/09/02 01:56:40;;;;;;;7.00;5.63;;;;;;;;;;727595;191;718711;-82
2021/09/02 01:59:05;;;;;;;8.50;5.43;;;;;;;;;;719136;192;652357;-83
2021/09/02 02:01:31;;;;;;;9.13;4.87;;;;;;;;;;734266;190;888864;-82
2021/09/02 02:03:57;;;;;;;6.83;5.10;;;;;;;;;;737025;190;640321;-82
2021/09/02 02:06:23;;;;;;;6.07;4.53;;;;;;;;;;732736;190;620584;-82
2021/09/02 02:08:49;;;;;;;10.40;5.00;;;;;;;;;;738034;190;653645;-82
2021/09/02 02:11:15;;;;;;;6.60;4.87;;;;;;;;;;739424;190;625155;-82
2021/09/02 02:13:40;;;;;;;8.73;4.53;;;;;;;;;;736379;188;699129;-82
2021/09/02 02:16:06;;;;;;;5.07;4.17;;;;;;;;;;737894;190;646526;-81
2021/09/02 02:18:32;;;;;;;7.63;5.03;;;;;;;;;;731430;190;646282;-82
2021/09/02 02:20:58;;;;;;;7.13;5.17;;;;;;;;;;737205;190;646162;-81
2021/09/02 02:23:24;;;;;;;7.70;4.27;;;;;;;;;;730714;190;668029;-81
2021/09/02 02:25:50;;;;;;;8.07;5.13;;;;;;;;;;735603;190;818653;-83
2021/09/02 02:28:15;;;;;;;10.13;5.90;;;;;;;;;;745564;186;652576;-81
2021/09/02 02:30:41;;;;;;;6.87;5.10;;;;;;;;;;738724;189;637178;-82
2021/09/02 02:33:07;;;;;;;11.00;5.10;;;;;;;;;;737502;189;646247;-81
2021/09/02 02:35:33;;;;;;;11.57;5.63;;;;;;;;;;735702;189;634196;-81
2021/09/02 02:37:59;;;;;;;7.90;6.13;;;;;;;;;;735684;190;656607;-82
2021/09/02 02:40:25;;;;;;;6.90;5.57;;;;;;;;;;732217;190;646811;-82
2021/09/02 02:42:51;;;;;;;10.97;5.83;;;;;;;;;;740968;190;639017;-82
2021/09/02 02:45:16;;;;;;;16.90;7.83;;;;;;;;;;742544;189;639467;-81
2021/09/02 02:47:42;;;;;;;11.63;7.30;;;;;;;;;;728863;190;634056;-81
2021/09/02 02:50:09;;;;;;;8.75;6.90;;;;;;;;;;739488;189;630401;-82
2021/09/02 02:52:34;;;;;;;11.57;8.60;;;;;;;;;;738997;189;642305;-81
2021/09/02 02:55:00;;;;;;;10.97;8.80;;;;;;;;;;739664;189;635904;-81
2021/09/02 02:57:26;;;;;;;13.40;7.97;;;;;;;;;;732469;190;622960;-81
2021/09/02 02:59:52;;;;;;;13.33;7.90;;;;;;;;;;741605;187;614535;-81
2021/09/02 03:02:18;;;;;;;14.50;8.33;;;;;;;;;;737836;189;625361;-82
2021/09/02 03:04:44;;;;;;;16.80;8.80;;;;;;;;;;737373;191;642498;-81
2021/09/02 03:07:09;;;;;;;12.87;8.33;;;;;;;;;;742246;190;625216;-81
2021/09/02 03:09:35;;;;;;;13.70;8.40;;;;;;;;;;738870;190;623831;-82
2021/09/02 03:12:01;;;;;;;13.73;8.50;;;;;;;;;;726542;190;626416;-82
2021/09/02 03:14:27;;;;;;;13.00;7.80;;;;;;;;;;743635;190;638315;-81
2021/09/02 03:16:53;;;;;;;14.07;8.30;;;;;;;;;;737979;190;769772;-81
2021/09/02 03:19:19;;;;;;;11.37;8.37;;;;;;;;;;733243;190;808910;-82
2021/09/02 03:21:45;;;;;;;15.63;8.00;;;;;;;;;;737590;190;630003;-82
2021/09/02 03:24:10;;;;;;;10.83;6.90;;;;;;;;;;741931;190;671973;-81
2021/09/02 03:26:36;;;;;;;10.50;6.73;;;;;;;;;;729743;190;659680;-81
2021/09/02 03:29:02;;;;;;;12.43;7.70;;;;;;;;;;737718;188;724853;-82
2021/09/02 03:31:28;;;;;;;12.63;7.40;;;;;;;;;;740409;190;716742;-81
2021/09/02 03:33:54;;;;;;;10.57;6.83;;;;;;;;;;737064;190;718003;-82
2021/09/02 03:36:20;;;;;;;11.40;6.63;;;;;;;;;;737494;190;684525;-82
2021/09/02 03:38:46;;;;;;;8.20;6.07;;;;;;;;;;740804;189;633649;-82
2021/09/02 03:41:12;;;;;;;9.40;6.20;;;;;;;;;;740495;189;630266;-81
2021/09/02 03:43:37;;;;;;;12.90;7.03;;;;;;;;;;737525;190;644271;-81
2021/09/02 03:46:03;;;;;;;11.77;7.10;;;;;;;;;;727618;191;629685;-82
2021/09/02 03:48:29;;;;;;;9.97;6.23;;;;;;;;;;742753;189;633364;-82
2021/09/02 03:50:55;;;;;;;9.40;5.57;;;;;;;;;;722562;191;632700;-82
2021/09/02 03:53:21;;;;;;;9.00;6.40;;;;;;;;;;736062;189;625800;-82
2021/09/02 03:55:47;;;;;;;10.17;5.13;;;;;;;;;;738746;189;617849;-82
2021/09/02 03:58:12;;;;;;;7.53;5.50;;;;;;;;;;733841;189;647353;-82
2021/09/02 04:00:38;;;;;;;10.80;5.70;;;;;;;;;;730789;191;644289;-82
2021/09/02 04:03:04;;;;;;;8.23;5.93;;;;;;;;;;736645;191;628377;-82
2021/09/02 04:05:30;;;;;;;5.93;5.00;;;;;;;;;;734013;190;663414;-81
2021/09/02 04:07:56;;;;;;;8.13;5.30;;;;;;;;;;732654;191;616278;-81
2021/09/02 04:10:22;;;;;;;7.30;4.90;;;;;;;;;;736978;189;655444;-82
2021/09/02 04:12:48;;;;;;;7.97;4.93;;;;;;;;;;739912;188;623507;-82
2021/09/02 04:15:14;;;;;;;6.43;3.80;;;;;;;;;;734416;190;645313;-82
2021/09/02 04:17:39;;;;;;;7.50;4.70;;;;;;;;;;737998;190;641660;-82
2021/09/02 04:20:05;;;;;;;9.90;4.70;;;;;;;;;;738068;190;679016;-82
2021/09/02 04:22:31;;;;;;;9.40;5.33;;;;;;;;;;736513;190;639178;-81
2021/09/02 04:24:57;;;;;;;6.33;4.73;;;;;;;;;;737475;190;660122;-81
2021/09/02 04:27:23;;;;;;;9.17;5.67;;;;;;;;;;736995;192;647032;-82
2021/09/02 04:29:49;;;;;;;6.63;5.00;;;;;;;;;;732346;190;626262;-81
2021/09/02 04:32:15;;;;;;;12.80;5.00;;;;;;;;;;734611;190;640574;-81
2021/09/02 04:34:40;;;;;;;8.10;4.80;;;;;;;;;;728361;190;621654;-81
2021/09/02 04:37:06;;;;;;;6.20;4.37;;;;;;;;;;737791;190;621204;-81
2021/09/02 04:39:33;;;;;;;6.83;5.13;;;;;;;;;;737357;191;620449;-80
2021/09/02 04:41:59;;;;;;;13.00;7.17;;;;;;;;;;727959;190;630150;-82
2021/09/02 04:44:25;;;;;;;8.60;5.70;;;;;;;;;;730765;192;622416;-81
2021/09/02 04:46:51;;;;;;;11.77;5.37;;;;;;;;;;741545;190;623261;-81
2021/09/02 04:49:17;;;;;;;8.40;5.80;;;;;;;;;;736411;190;623949;-82
2021/09/02 04:51:43;;;;;;;8.67;6.03;;;;;;;;;;727576;191;655499;-82
2021/09/02 04:54:09;;;;;;;12.73;7.07;;;;;;;;;;716794;196;634588;-81
2021/09/02 04:56:35;;;;;;;11.80;6.77;;;;;;;;;;705701;196;632393;-81
2021/09/02 04:59:01;;;;;;;11.73;6.93;;;;;;;;;;724907;188;671755;-82
2021/09/02 05:01:27;;;;;;;12.10;7.60;;;;;;;;;;734187;190;663515;-81
2021/09/02 05:03:53;;;;;;;10.63;6.30;;;;;;;;;;716128;196;633981;-82
2021/09/02 05:06:19;;;;;;;11.60;6.60;;;;;;;;;;731746;189;643331;-82
2021/09/02 05:08:45;;;;;;;17.43;8.20;;;;;;;;;;741356;189;633734;-81
2021/09/02 05:11:11;;;;;;;16.43;7.93;;;;;;;;;;734010;190;643544;-82
2021/09/02 05:13:36;;;;;;;17.57;9.60;;;;;;;;;;723824;192;632494;-82
2021/09/02 05:16:02;;;;;;;10.83;7.10;;;;;;;;;;742349;190;661776;-82
2021/09/02 05:18:28;;;;;;;14.83;9.07;;;;;;;;;;738314;190;652725;-86
2021/09/02 05:20:54;;;;;;;12.93;8.93;;;;;;;;;;737974;189;640042;-86
2021/09/02 05:23:20;;;;;;;20.03;10.43;;;;;;;;;;728624;191;619749;-85
2021/09/02 05:25:46;;;;;;;22.53;11.33;;;;;;;;;;733427;191;670534;-86
2021/09/02 05:28:12;;;;;;;16.20;9.70;;;;;;;;;;720575;190;712736;-86
2021/09/02 05:30:37;;;;;;;19.30;10.33;;;;;;;;;;734808;191;623839;-86
2021/09/02 05:33:03;;;;;;;12.70;8.67;;;;;;;;;;741915;190;656851;-86
2021/09/02 05:35:29;;;;;;;16.40;9.77;;;;;;;;;;738336;190;633501;-87
2021/09/02 05:37:55;;;;;;;16.40;10.13;;;;;;;;;;735657;190;626547;-86
2021/09/02 05:40:21;;;;;;;14.93;9.50;;;;;;;;;;738995;190;626497;-86
2021/09/02 05:42:47;;;;;;;16.43;9.70;;;;;;;;;;738064;190;635541;-86
2021/09/02 05:45:13;;;;;;;18.57;10.47;;;;;;;;;;738276;190;671031;-86
2021/09/02 05:47:38;;;;;;;17.00;10.03;;;;;;;;;;743039;190;635071;-86
2021/09/02 05:50:05;;;;;;;11.63;7.63;;;;;;;;;;723594;190;633633;-86
2021/09/02 05:52:31;;;;;;;18.47;8.27;;;;;;;;;;738766;190;644757;-85
2021/09/02 05:54:58;;;;;;;14.97;8.63;;;;;;;;;;732128;191;629299;-86
2021/09/02 05:57:22;;;;;;;12.37;7.73;;;;;;;;;;733738;190;631498;-85
2021/09/02 05:59:48;;;;;;;12.93;7.33;;;;;;;;;;738084;190;627050;-86
2021/09/02 06:02:14;;;;;;;9.33;7.37;;;;;;;;;;739354;188;627577;-86
2021/09/02 06:04:40;;;;;;;10.30;7.40;;;;;;;;;;744193;189;666180;-86
2021/09/02 06:07:06;;;;;;;13.40;6.97;;;;;;;;;;737713;190;643695;-85
2021/09/02 06:09:32;;;;;;;9.23;7.03;;;;;;;;;;736716;190;662698;-85
2021/09/02 06:11:57;;;;;;;11.20;7.47;;;;;;;;;;736272;189;631267;-85
2021/09/02 06:14:23;;;;;;;10.53;6.77;;;;;;;;;;735675;189;621767;-85
2021/09/02 06:16:49;;;;;;;8.20;6.10;;;;;;;;;;731336;189;638340;-86
2021/09/02 06:19:15;;;;;;;8.50;6.70;;;;;;;;;;736637;190;643125;-86
2021/09/02 06:21:41;;;;;;;10.30;7.13;;;;;;;;;;729523;192;672185;-86
2021/09/02 06:24:07;;;;;;;10.27;6.70;;;;;;;;;;720235;193;663657;-86
2021/09/02 06:26:33;;;;;;;8.23;6.77;;;;;;;;;;732125;189;620538;-86
2021/09/02 06:28:58;;;;;;;8.30;6.20;;;;;;;;;;734211;192;635256;-84
2021/09/02 06:31:24;;;;;;;9.80;6.00;;;;;;;;;;739021;190;634795;-87
2021/09/02 06:33:50;;;;;;;6.93;5.07;;;;;;;;;;737577;190;701740;-87
2021/09/02 06:36:19;;;;;;;8.93;5.57;;;;;;;;;;742495;191;624379;-86
2021/09/02 06:38:43;;;;;;;9.93;5.57;;;;;;;;;;731675;191;627306;-87
2021/09/02 06:41:09;;;;;;;7.53;5.50;;;;;;;;;;730286;191;630846;-85
2021/09/02 06:43:34;;;;;;;9.10;5.23;;;;;;;;;;733659;191;634232;-83
2021/09/02 06:46:00;;;;;;;7.03;5.53;;;;;;;;;;728289;192;762782;-86
2021/09/02 06:48:26;;;;;;;12.33;5.30;;;;;;;;;;731761;189;649316;-87
2021/09/02 06:50:52;;;;;;;8.53;5.90;;;;;;;;;;722226;193;622980;-88
2021/09/02 06:53:18;;;;;;;7.93;4.33;;;;;;;;;;738297;190;701838;-89
2021/09/02 06:55:44;;;;;;;7.17;5.70;;;;;;;;;;738418;190;651255;-85
2021/09/02 06:58:10;;;;;;;5.83;4.80;;;;;;;;;;734626;190;762119;-86
2021/09/02 07:00:35;;;;;;;8.30;4.90;;;;;;;;;;730692;190;628391;-84
2021/09/02 07:03:01;;;;;;;10.20;4.43;;;;;;;;;;736172;190;627817;-86
2021/09/02 07:05:27;;;;;;;6.73;4.60;;;;;;;;;;743009;186;811676;-84
2021/09/02 07:07:54;;;;;;;7.13;4.20;;;;;;;;;;738603;190;628194;-86
2021/09/02 07:10:19;;;;;;;5.93;4.22;;;;;;;;;;737185;188;708238;-85
2021/09/02 07:12:45;;;;;;;9.93;4.37;;;;;;;;;;717579;193;630478;-85
2021/09/02 07:15:11;;;;;;;8.80;4.53;;;;;;;;;;724009;192;654105;-87
2021/09/02 07:17:37;;;;;;;10.63;4.00;;;;;;;;;;744842;189;645178;-87
2021/09/02 07:20:03;;;;;;;6.83;5.00;;;;;;;;;;738109;190;637498;-86
2021/09/02 07:22:29;;;;;;;9.52;5.10;;;;;;;;;;733180;189;1507176;-87
2021/09/02 07:24:54;;;;;;;10.30;5.00;;;;;;;;;;733918;190;656589;-89
2021/09/02 07:27:20;;;;;;;7.90;4.33;;;;;;;;;;733122;189;623803;-86
2021/09/02 07:29:46;;;;;;;12.97;5.23;;;;;;;;;;735853;190;622196;-87
2021/09/02 07:32:12;;;;;;;6.10;4.13;;;;;;;;;;736629;190;619926;-87
2021/09/02 07:34:38;;;;;;;5.77;4.40;;;;;;;;;;733702;190;804749;-88
2021/09/02 07:37:03;;;;;;;7.83;4.97;;;;;;;;;;738132;190;693226;-85
2021/09/02 07:39:29;;;;;;;9.40;4.53;;;;;;;;;;735567;188;636437;-88
2021/09/02 07:41:55;;;;;;;6.40;4.40;;;;;;;;;;732532;190;616136;-87
2021/09/02 07:44:21;;;;;;;7.27;4.80;;;;;;;;;;736227;190;636701;-88
2021/09/02 07:46:47;;;;;;;6.37;4.07;;;;;;;;;;739040;185;628013;-66
2021/09/02 07:49:13;;;;;;;7.77;4.60;;;;;;;;;;756111;185;920185;-66
2021/09/02 07:51:41;;;;;;;6.83;3.80;;;;;;;;;;755231;182;627983;-66
2021/09/02 07:54:05;;;;;;;7.23;5.17;;;;;;;;;;752758;182;611898;-66
2021/09/02 07:56:30;;;;;;;10.30;5.00;;;;;;;;;;757693;182;623597;-67
2021/09/02 07:58:56;;;;;;;8.87;4.43;;;;;;;;;;756275;182;622924;-67
2021/09/02 08:01:23;;;;;;;6.40;4.27;;;;;;;;;;753952;182;775337;-66
2021/09/02 08:03:49;;;;;;;6.73;4.63;;;;;;;;;;753130;183;634380;-66
2021/09/02 08:06:14;;;;;;;6.60;4.17;;;;;;;;;;739694;185;635880;-68
2021/09/02 08:08:40;;;;;;;7.33;4.83;;;;;;;;;;751368;182;626585;-66
2021/09/02 08:11:06;;;;;;;6.85;4.45;;;;;;;;;;751868;183;641514;-66
2021/09/02 08:13:32;;;;;;;5.50;4.50;;;;;;;;;;755549;187;623965;-66
2021/09/02 08:15:58;;;;;;;5.70;3.67;;;;;;;;;;755121;183;625512;-66
2021/09/02 08:18:24;;;;;;;7.23;4.27;;;;;;;;;;754894;183;619359;-66
2021/09/02 08:20:50;;;;;;;7.63;5.30;;;;;;;;;;757281;186;623558;-66
2021/09/02 08:23:15;;;;;;;6.57;4.53;;;;;;;;;;756100;183;628825;-68
2021/09/02 08:25:41;;;;;;;6.63;4.60;;;;;;;;;;757034;184;626914;-66
2021/09/02 08:28:07;;;;;;;9.13;6.00;;;;;;;;;;759834;182;637143;-66
2021/09/02 08:30:34;;;;;;;8.67;5.10;;;;;;;;;;758459;185;623429;-67
2021/09/02 08:33:00;;;;;;;9.80;4.97;;;;;;;;;;759496;182;626969;-66
2021/09/02 08:35:26;;;;;;;8.90;5.17;;;;;;;;;;757195;182;631835;-67
2021/09/02 08:37:52;;;;;;;8.80;4.03;;;;;;;;;;760674;182;675306;-66
2021/09/02 08:40:18;;;;;;;8.97;4.00;;;;;;;;;;760105;182;627572;-67
2021/09/02 08:42:44;;;;;;;7.47;4.60;;;;;;;;;;757159;182;623141;-68
2021/09/02 08:45:10;;;;;;;8.97;3.93;;;;;;;;;;761025;182;618654;-66
2021/09/02 08:47:35;;;;;;;6.80;3.70;;;;;;;;;;756546;182;627145;-67
2021/09/02 08:50:01;;;;;;;6.23;4.40;;;;;;;;;;758148;182;620327;-67
2021/09/02 08:52:29;;;;;;;13.90;4.50;;;;;;;;;;757890;182;629971;-65
2021/09/02 08:54:53;;;;;;;9.33;4.30;;;;;;;;;;767094;182;620762;-66
2021/09/02 08:57:19;;;;;;;5.30;3.93;;;;;;;;;;753671;182;630670;-66
2021/09/02 08:59:45;;;;;;;7.23;3.73;;;;;;;;;;754999;183;690989;-66
2021/09/02 09:02:16;;;;;;;7.70;4.10;;;;;;;;;;761076;182;632480;-65
2021/09/02 09:04:42;;;;;;;5.10;4.20;;;;;;;;;;758710;182;627467;-67
2021/09/02 09:07:08;;;;;;;7.13;4.50;;;;;;;;;;757701;182;644218;-70
2021/09/02 09:09:34;;;;;;;6.63;3.50;;;;;;;;;;760314;182;636046;-68
2021/09/02 09:12:00;;;;;;;6.07;4.03;;;;;;;;;;756589;182;625196;-68
2021/09/02 09:14:30;;;;;;;6.00;3.90;;;;;;;;;;761074;182;918232;-67
2021/09/02 09:16:53;;;;;;;5.23;3.80;;;;;;;;;;760736;182;618108;-66
2021/09/02 09:19:25;;;;;;;7.53;3.73;;;;;;;;;;757512;182;621882;-66
2021/09/02 09:21:54;;;;;;;5.20;3.70;;;;;;;;;;764558;182;637272;-66
2021/09/02 09:24:20;;;;;;;4.53;3.17;;;;;;;;;;758960;182;622414;-66
2021/09/02 09:26:46;;;;;;;8.00;3.50;;;;;;;;;;757864;182;619285;-66
2021/09/02 09:29:15;;;;;;;4.83;3.30;;;;;;;;;;758285;182;633137;-66
2021/09/02 09:31:40;;;;;;;7.10;3.60;;;;;;;;;;758517;182;640927;-66
2021/09/02 09:34:06;;;;;;;7.30;3.80;;;;;;;;;;759368;182;615023;-66
2021/09/02 09:36:32;;;;;;;6.87;4.17;;;;;;;;;;760100;182;633231;-69
2021/09/02 09:38:58;;;;;;;6.00;3.80;;;;;;;;;;762771;181;618799;-67
2021/09/02 09:41:30;;;;;;;6.63;4.23;;;;;;;;;;759219;182;618849;-66
2021/09/02 09:43:55;;;;;;;5.67;4.03;;;;;;;;;;755297;185;915992;-66
2021/09/02 09:46:21;;;;;;;5.83;4.07;;;;;;;;;;760054;182;630202;-66
2021/09/02 09:48:47;;;;;;;8.80;3.93;;;;;;;;;;756823;185;618933;-67
2021/09/02 09:51:14;;;;;;;4.50;3.50;;;;;;;;;;754042;185;630684;-67
2021/09/02 09:53:40;;;;;;;4.97;3.30;;;;;;;;;;765861;182;615045;-66
2021/09/02 09:56:05;;;;;;;5.17;3.47;;;;;;;;;;761731;182;627193;-66
2021/09/02 09:58:31;;;;;;;7.10;3.90;;;;;;;;;;758585;185;636743;-66
2021/09/02 10:00:58;;;;;;;5.97;3.63;;;;;;;;;;756097;182;619191;-65
2021/09/02 10:03:23;;;;;;;9.30;4.33;;;;;;;;;;755170;185;646961;-66
2021/09/02 10:05:49;;;;;;;5.17;3.20;;;;;;;;;;755615;182;651637;-68
2021/09/02 10:08:15;;;;;;;5.60;3.30;;;;;;;;;;756842;182;626373;-66
2021/09/02 10:10:40;;;;;;;5.10;3.30;;;;;;;;;;761580;182;620900;-66
2021/09/02 10:13:06;;;;;;;4.20;3.27;;;;;;;;;;758142;182;620699;-68
2021/09/02 10:15:32;;;;;;;4.00;2.90;;;;;;;;;;757471;182;618542;-67
2021/09/02 10:17:58;;;;;;;5.50;3.33;;;;;;;;;;759156;182;632807;-67
2021/09/02 10:20:24;;;;;;;4.50;2.90;;;;;;;;;;765866;182;635878;-67
2021/09/02 10:22:50;;;;;;;6.40;4.13;;;;;;;;;;756336;182;629902;-68
2021/09/02 10:25:21;;;;;;;4.73;2.83;;;;;;;;;;760087;182;631602;-67
2021/09/02 10:27:47;;;;;;;6.20;3.60;;;;;;;;;;760179;185;616897;-66
2021/09/02 10:30:19;;;;;;;5.80;3.40;;;;;;;;;;756976;182;632434;-68
2021/09/02 10:32:46;;;;;;;9.03;5.13;;;;;;;;;;758067;182;629715;-66
2021/09/02 10:35:27;;;;;;;4.60;3.13;;;;;;;;;;759147;182;632471;-66
2021/09/02 10:37:53;;;;;;;6.93;3.47;;;;;;;;;;758622;185;617283;-68
2021/09/02 10:40:33;;;;;;;7.30;3.30;;;;;;;;;;756911;182;643522;-65
2021/09/02 10:42:59;;;;;;;6.60;3.67;;;;;;;;;;756347;185;618982;-66
2021/09/02 10:45:34;;;;;;;5.40;3.13;;;;;;;;;;761261;182;624075;-66
2021/09/02 10:48:00;;;;;;;8.00;3.78;;;;;;;;;;759722;181;908605;-66
2021/09/02 10:50:25;;;;;;;5.77;3.50;;;;;;;;;;765118;181;616404;-65
2021/09/02 10:52:51;;;;;;;5.63;3.97;;;;;;;;;;760367;182;626966;-68
2021/09/02 10:55:33;;;;;;;6.37;3.70;;;;;;;;;;758488;182;622953;-67
2021/09/02 10:58:01;;;;;;;5.30;3.40;;;;;;;;;;758164;182;679691;-67
2021/09/02 11:00:31;;;;;;;5.17;3.30;;;;;;;;;;762777;182;638845;-66
2021/09/02 11:03:02;;;;;;;5.93;3.30;;;;;;;;;;758390;185;608888;-65
2021/09/02 11:05:28;;;;;;;5.00;3.33;;;;;;;;;;759286;182;684428;-67
2021/09/02 11:07:54;;;;;;;4.73;3.37;;;;;;;;;;761104;182;616657;-66
2021/09/02 11:10:20;;;;;;;7.03;3.50;;;;;;;;;;760437;182;622415;-66
2021/09/02 11:12:46;;;;;;;4.43;3.10;;;;;;;;;;764536;182;644832;-65
2021/09/02 11:15:12;;;;;;;7.07;3.70;;;;;;;;;;758657;182;647347;-67
2021/09/02 11:17:37;;;;;;;9.20;4.13;;;;;;;;;;756991;182;628579;-65
2021/09/02 11:20:04;;;;;;;6.10;3.37;;;;;;;;;;760657;182;630614;-66
2021/09/02 11:22:29;;;;;;;5.93;4.00;;;;;;;;;;753715;182;629201;-65
2021/09/02 11:24:55;;;;;;;6.67;3.00;;;;;;;;;;760467;182;631355;-66
2021/09/02 11:27:26;;;;;;;4.40;3.23;;;;;;;;;;766464;182;615941;-66
2021/09/02 11:29:52;;;;;;;4.80;3.23;;;;;;;;;;756562;182;628612;-66
2021/09/02 11:32:17;;;;;;;5.20;3.53;;;;;;;;;;760119;182;622006;-66
2021/09/02 11:34:43;;;;;;;5.70;4.07;;;;;;;;;;762067;182;815607;-66
2021/09/02 11:37:09;;;;;;;9.13;3.10;;;;;;;;;;760815;182;634036;-67
2021/09/02 11:39:35;;;;;;;5.23;3.53;;;;;;;;;;759512;182;630526;-68
2021/09/02 11:42:02;;;;;;;7.27;3.60;;;;;;;;;;756562;182;634382;-66
2021/09/02 11:44:31;;;;;;;6.33;4.37;;;;;;;;;;758859;182;633466;-65
2021/09/02 11:46:53;;;;;;;5.87;3.50;;;;;;;;;;756111;182;634032;-65
2021/09/02 11:49:19;;;;;;;7.27;3.33;;;;;;;;;;755445;182;623136;-67
2021/09/02 11:51:51;;;;;;;4.73;3.37;;;;;;;;;;759191;182;656459;-66
2021/09/02 11:54:18;;;;;;;8.70;4.17;;;;;;;;;;760928;185;623846;-66
2021/09/02 11:56:42;;;;;;;5.60;3.43;;;;;;;;;;755272;182;632568;-66
2021/09/02 11:59:10;;;;;;;6.97;4.03;;;;;;;;;;762989;182;643986;-66
2021/09/02 12:01:34;;;;;;;4.63;3.03;;;;;;;;;;767842;180;638265;-66
2021/09/02 12:04:00;;;;;;;5.40;3.70;;;;;;;;;;759448;182;624446;-66
2021/09/02 12:06:27;;;;;;;6.30;3.33;;;;;;;;;;761867;182;631976;-66
2021/09/02 12:08:53;;;;;;;5.80;3.60;;;;;;;;;;763030;182;628546;-65
2021/09/02 12:11:19;;;;;;;7.27;4.07;;;;;;;;;;758692;182;627938;-66
2021/09/02 12:13:45;;;;;;;6.10;3.87;;;;;;;;;;760058;182;633739;-66
2021/09/02 12:16:12;;;;;;;5.67;3.90;;;;;;;;;;756006;185;618344;-66
2021/09/02 12:18:37;;;;;;;6.70;3.63;;;;;;;;;;760358;182;628606;-66
2021/09/02 12:21:08;;;;;;;6.80;4.20;;;;;;;;;;760291;182;626191;-65
2021/09/02 12:23:34;;;;;;;9.53;4.57;;;;;;;;;;757192;182;626179;-66
2021/09/02 12:26:00;;;;;;;14.40;5.03;;;;;;;;;;758876;182;625786;-65
2021/09/02 12:28:30;;;;;;;6.70;4.30;;;;;;;;;;759381;182;625074;-68
2021/09/02 12:30:56;;;;;;;6.07;4.27;;;;;;;;;;757054;182;618646;-64
2021/09/02 12:33:22;;;;;;;8.67;4.53;;;;;;;;;;756544;182;750673;-67
2021/09/02 12:35:48;;;;;;;7.73;4.20;;;;;;;;;;766855;182;614410;-66
2021/09/02 12:38:19;;;;;;;5.00;3.40;;;;;;;;;;761813;182;627729;-65
2021/09/02 12:40:45;;;;;;;6.23;3.80;;;;;;;;;;760772;182;626846;-65
2021/09/02 12:43:13;;;;;;;5.80;4.10;;;;;;;;;;753953;182;777640;-66
2021/09/02 12:45:39;;;;;;;7.03;4.20;;;;;;;;;;756085;186;618115;-67
2021/09/02 12:48:05;;;;;;;7.77;4.10;;;;;;;;;;756080;182;625221;-65
2021/09/02 12:50:31;;;;;;;6.47;4.10;;;;;;;;;;756244;182;630360;-65
2021/09/02 12:52:57;;;;;;;8.47;3.93;;;;;;;;;;759473;182;627151;-66
2021/09/02 12:55:23;;;;;;;6.27;4.30;;;;;;;;;;756689;182;627900;-67
2021/09/02 12:57:48;;;;;;;8.53;4.90;;;;;;;;;;758030;182;628574;-65
2021/09/02 13:00:16;;;;;;;5.40;4.07;;;;;;;;;;766930;182;630149;-66
2021/09/02 13:02:42;;;;;;;7.90;3.87;;;;;;;;;;760873;182;641987;-68
2021/09/02 13:05:08;;;;;;;6.17;4.10;;;;;;;;;;752953;182;692024;-67
2021/09/02 13:07:33;;;;;;;6.20;4.40;;;;;;;;;;758865;182;616697;-66
2021/09/02 13:09:59;;;;;;;7.90;4.20;;;;;;;;;;763715;182;612872;-67
2021/09/02 13:12:25;;;;;;;10.57;4.97;;;;;;;;;;758432;181;620999;-66
2021/09/02 13:14:51;;;;;;;7.60;4.43;;;;;;;;;;760349;181;626658;-67
2021/09/02 13:17:17;;;;;;;8.50;3.90;;;;;;;;;;764399;182;636653;-66
2021/09/02 13:19:43;;;;;;;7.33;4.83;;;;;;;;;;756493;185;637344;-67
2021/09/02 13:22:08;;;;;;;7.50;3.93;;;;;;;;;;764199;182;618820;-66
2021/09/02 13:24:35;;;;;;;5.20;3.50;;;;;;;;;;763603;182;627421;-66
2021/09/02 13:27:00;;;;;;;7.00;4.00;;;;;;;;;;757760;182;625135;-66
2021/09/02 13:29:26;;;;;;;8.63;5.17;;;;;;;;;;759054;182;647211;-67
2021/09/02 13:31:52;;;;;;;7.43;5.20;;;;;;;;;;756115;182;625723;-66
2021/09/02 13:34:18;;;;;;;6.30;4.13;;;;;;;;;;756342;186;619919;-67
2021/09/02 13:36:43;;;;;;;6.80;4.93;;;;;;;;;;759398;182;626548;-67
2021/09/02 13:39:09;;;;;;;5.27;3.73;;;;;;;;;;755997;182;626090;-68
2021/09/02 13:41:35;;;;;;;9.53;4.23;;;;;;;;;;764341;182;628150;-66
2021/09/02 13:44:01;;;;;;;6.97;3.77;;;;;;;;;;762329;182;629073;-66
2021/09/02 13:46:27;;;;;;;7.13;4.30;;;;;;;;;;762640;182;620521;-67
2021/09/02 13:48:53;;;;;;;5.60;3.73;;;;;;;;;;759174;182;631463;-65
2021/09/02 13:51:19;;;;;;;6.00;4.20;;;;;;;;;;760203;182;622128;-66
2021/09/02 13:53:44;;;;;;;6.47;4.10;;;;;;;;;;755734;182;631434;-67
2021/09/02 13:56:10;;;;;;;12.60;5.10;;;;;;;;;;758714;182;631292;-66
2021/09/02 13:58:36;;;;;;;13.43;4.37;;;;;;;;;;761085;185;632108;-66
2021/09/02 14:01:02;;;;;;;5.30;3.53;;;;;;;;;;745561;185;616192;-67
2021/09/02 14:03:28;;;;;;;5.17;3.70;;;;;;;;;;759796;182;638842;-66
2021/09/02 14:05:54;;;;;;;6.20;5.10;;;;;;;;;;763800;182;630461;-65
2021/09/02 14:08:19;;;;;;;6.10;4.03;;;;;;;;;;757214;182;630390;-66
2021/09/02 14:10:45;;;;;;;6.80;4.53;;;;;;;;;;756022;182;632187;-66
2021/09/02 14:13:11;;;;;;;5.90;3.80;;;;;;;;;;761208;182;625281;-67
2021/09/02 14:15:37;;;;;;;6.70;4.00;;;;;;;;;;757191;182;624817;-66
2021/09/02 14:18:03;;;;;;;6.23;4.23;;;;;;;;;;758240;182;920324;-67
2021/09/02 14:20:29;;;;;;;7.20;4.87;;;;;;;;;;757195;182;619110;-68